Time;durP1;ratioP1;P1;durP2;ratioP2;P2;SDS_P1;SDS_P2;PMS_P1;PMS_P2;Temp;Humidity;BMP_temperature;BMP_pressure;BME280_temperature;BME280_humidity;BME280_pressure;Samples;Min_cycle;Max_cycle;Signal;HPM_P1;HPM_P2
2021/06/07 00:09:05;;;;;;;23.12;16.58;;;16.90;99.90;;;;;;6752710;88;20708;-80
2021/06/07 00:19:11;;;;;;;25.00;16.70;;;16.90;99.90;;;;;;6751598;88;20199;-80
2021/06/07 00:29:12;;;;;;;31.50;20.08;;;16.90;99.90;;;;;;6750450;88;20231;-80
2021/06/07 00:39:15;;;;;;;35.33;22.85;;;16.80;99.90;;;;;;6751765;88;20224;-81
2021/06/07 00:49:16;;;;;;;42.33;25.65;;;17.00;99.90;;;;;;6747848;88;20717;-80
2021/06/07 00:59:17;;;;;;;40.05;24.40;;;17.10;99.90;;;;;;6747063;88;20203;-81
2021/06/07 01:09:18;;;;;;;38.97;24.27;;;17.10;99.90;;;;;;6751410;88;20196;-81
2021/06/07 01:19:19;;;;;;;41.47;23.92;;;17.20;99.90;;;;;;6748043;88;20174;-80
2021/06/07 01:29:19;;;;;;;42.33;24.67;;;17.20;99.90;;;;;;6751901;88;20313;-80
2021/06/07 01:39:23;;;;;;;38.13;23.05;;;17.20;99.90;;;;;;6752225;88;20227;-81
2021/06/07 01:49:24;;;;;;;41.63;23.30;;;17.10;99.90;;;;;;6749555;88;20196;-80
2021/06/07 01:59:24;;;;;;;40.65;23.73;;;17.10;99.90;;;;;;6746594;88;20743;-80
2021/06/07 02:09:25;;;;;;;42.55;23.75;;;17.00;99.90;;;;;;6750280;88;20262;-81
2021/06/07 02:19:26;;;;;;;35.85;22.73;;;16.90;99.90;;;;;;6751233;88;20202;-80
2021/06/07 02:29:26;;;;;;;38.63;24.10;;;16.80;99.90;;;;;;6752835;88;20204;-80
2021/06/07 02:39:27;;;;;;;40.08;22.92;;;16.90;99.90;;;;;;6756747;77;20541;-78
2021/06/07 02:49:28;;;;;;;35.67;23.03;;;16.80;99.90;;;;;;6766690;87;20219;-78
2021/06/07 02:59:28;;;;;;;37.70;23.50;;;16.80;99.90;;;;;;6776753;87;20499;-80
2021/06/07 03:09:29;;;;;;;39.30;23.00;;;16.80;99.90;;;;;;6769561;87;20249;-79
2021/06/07 03:19:30;;;;;;;36.80;21.67;;;16.70;99.90;;;;;;6758651;88;20187;-79
2021/06/07 03:29:30;;;;;;;38.20;23.05;;;16.70;99.90;;;;;;6758533;88;20210;-78
2021/06/07 03:39:31;;;;;;;33.78;21.17;;;16.60;99.90;;;;;;6760610;87;20688;-80
2021/06/07 03:49:32;;;;;;;35.45;22.08;;;16.60;99.90;;;;;;6756118;88;20216;-78
2021/06/07 03:59:33;;;;;;;31.87;20.73;;;16.70;99.90;;;;;;6759630;88;20597;-79
2021/06/07 04:09:33;;;;;;;31.58;20.48;;;16.60;99.90;;;;;;6759257;88;20183;-79
2021/06/07 04:19:34;;;;;;;33.63;21.40;;;16.70;99.90;;;;;;6758161;88;20339;-78
2021/06/07 04:29:35;;;;;;;32.67;21.17;;;16.80;99.90;;;;;;6756985;88;20204;-78
2021/06/07 04:39:36;;;;;;;34.03;21.95;;;16.70;99.90;;;;;;6759531;88;20219;-79
2021/06/07 04:49:36;;;;;;;33.45;21.37;;;16.70;99.90;;;;;;6757673;88;20227;-79
2021/06/07 04:59:37;;;;;;;34.77;21.73;;;16.90;99.90;;;;;;6758462;88;20524;-79
2021/06/07 05:09:37;;;;;;;31.92;20.65;;;16.90;99.90;;;;;;6763865;87;20504;-78
2021/06/07 05:19:38;;;;;;;31.52;21.05;;;17.00;99.90;;;;;;6776409;87;20837;-79
2021/06/07 05:29:38;;;;;;;31.15;20.83;;;17.40;99.90;;;;;;6777242;87;20194;-79
2021/06/07 05:39:39;;;;;;;29.83;20.25;;;17.70;99.90;;;;;;6776706;87;20395;-78
2021/06/07 05:49:39;;;;;;;31.75;20.12;;;17.90;99.90;;;;;;6760265;88;20227;-82
2021/06/07 05:59:40;;;;;;;27.55;18.40;;;18.00;99.90;;;;;;6760548;88;20202;-79
2021/06/07 06:09:41;;;;;;;26.33;17.85;;;18.40;99.90;;;;;;6772653;88;20246;-78
2021/06/07 06:19:41;;;;;;;24.87;15.73;;;18.80;99.90;;;;;;6767956;88;20173;-78
2021/06/07 06:29:43;;;;;;;25.98;17.48;;;19.20;99.90;;;;;;6771463;88;20569;-78
2021/06/07 06:39:44;;;;;;;25.45;16.33;;;19.50;99.90;;;;;;6768881;87;20269;-78
2021/06/07 06:49:44;;;;;;;23.73;15.37;;;19.70;99.90;;;;;;6768594;88;20179;-78
2021/06/07 06:59:45;;;;;;;21.67;14.98;;;19.90;99.90;;;;;;6763580;88;20313;-78
2021/06/07 07:09:46;;;;;;;29.42;15.63;;;19.90;99.90;;;;;;6766031;88;20196;-79
2021/06/07 07:19:47;;;;;;;26.30;14.57;;;20.50;99.90;;;;;;6769741;88;20187;-78
2021/06/07 07:29:48;;;;;;;23.85;14.80;;;20.80;99.90;;;;;;6768899;88;20639;-79
2021/06/07 07:39:49;;;;;;;18.43;11.70;;;20.80;99.90;;;;;;6767753;88;20268;-78
2021/06/07 07:49:49;;;;;;;17.02;11.50;;;21.20;99.90;;;;;;6754282;87;20552;-78
2021/06/07 07:59:50;;;;;;;17.30;12.67;;;21.30;99.90;;;;;;6769772;87;20656;-78
2021/06/07 08:09:50;;;;;;;15.38;10.50;;;21.90;99.90;;;;;;6774201;87;20187;-82
2021/06/07 08:19:51;;;;;;;15.45;11.15;;;22.60;99.90;;;;;;6775079;87;20379;-80
2021/06/07 08:29:52;;;;;;;14.63;10.85;;;23.00;99.90;;;;;;6775236;87;20213;-79
2021/06/07 08:39:52;;;;;;;12.98;10.68;;;22.70;99.90;;;;;;6774764;87;20297;-80
2021/06/07 08:49:53;;;;;;;14.40;9.97;;;23.00;99.90;;;;;;6775103;87;20216;-80
2021/06/07 08:59:53;;;;;;;13.00;8.73;;;22.90;99.90;;;;;;6774891;87;21010;-80
2021/06/07 09:10:06;;;;;;;14.60;9.07;;;23.20;99.90;;;;;;6775831;87;20261;-80
2021/06/07 09:20:19;;;;;;;15.30;10.05;;;23.30;99.90;;;;;;6774235;87;20196;-80
2021/06/07 09:30:30;;;;;;;12.63;9.57;;;23.80;99.90;;;;;;6774401;87;20233;-80
2021/06/07 09:40:30;;;;;;;12.90;9.23;;;24.40;99.90;;;;;;6774637;87;21043;-80
2021/06/07 09:50:31;;;;;;;11.82;7.53;;;24.40;99.90;;;;;;6774295;87;20208;-80
2021/06/07 10:00:49;;;;;;;12.30;8.63;;;24.10;99.90;;;;;;6773697;87;20212;-80
2021/06/07 10:10:52;;;;;;;19.02;12.80;;;23.60;99.90;;;;;;6771698;87;20791;-78
2021/06/07 10:20:53;;;;;;;28.17;17.98;;;23.20;99.90;;;;;;6767416;87;20184;-81
2021/06/07 10:30:56;;;;;;;31.77;20.62;;;21.60;99.90;;;;;;6756121;88;20197;-77
2021/06/07 10:41:15;;;;;;;16.73;11.75;;;20.90;99.90;;;;;;6763495;87;20196;-77
2021/06/07 10:51:16;;;;;;;19.25;13.07;;;20.90;99.90;;;;;;6758149;87;20180;-79
2021/06/07 11:01:17;;;;;;;18.95;12.50;;;21.00;99.90;;;;;;6770214;87;20180;-79
2021/06/07 11:11:21;;;;;;;18.23;12.05;;;21.20;99.90;;;;;;6775712;87;20192;-78
2021/06/07 11:21:21;;;;;;;;;;;21.60;99.90;;;;;;6776361;87;20148;-80
2021/06/07 11:31:22;;;;;;;14.40;9.32;;;21.70;99.90;;;;;;6771616;87;20524;-78
2021/06/07 11:41:46;;;;;;;12.98;8.70;;;21.50;99.90;;;;;;6780341;87;20257;-76
2021/06/07 11:52:03;;;;;;;16.35;10.10;;;21.70;99.90;;;;;;6779893;87;20177;-77
2021/06/07 12:02:19;;;;;;;12.35;8.80;;;21.80;99.90;;;;;;6784204;87;20189;-78
2021/06/07 12:12:20;;;;;;;15.25;9.63;;;21.90;99.90;;;;;;6782448;87;20193;-80
2021/06/07 12:22:45;;;;;;;18.33;10.50;;;22.10;99.90;;;;;;6780556;87;20203;-79
2021/06/07 12:32:49;;;;;;;16.15;9.93;;;22.20;99.90;;;;;;6779604;87;20210;-80
2021/06/07 12:43:02;;;;;;;11.97;7.67;;;22.70;99.90;;;;;;6772015;87;20332;-80
2021/06/07 12:53:04;;;;;;;9.70;5.70;;;22.20;99.90;;;;;;6765268;87;20651;-80
2021/06/07 13:03:16;;;;;;;9.80;5.32;;;22.30;99.90;;;;;;6772524;88;20202;-80
2021/06/07 13:13:19;;;;;;;8.60;4.75;;;22.60;99.90;;;;;;6772427;87;20230;-81
2021/06/07 13:23:41;;;;;;;7.85;4.75;;;23.00;99.90;;;;;;6772420;87;20230;-80
2021/06/07 13:33:42;;;;;;;6.07;4.30;;;23.50;99.90;;;;;;6765664;87;20194;-79
2021/06/07 13:43:42;;;;;;;14.52;9.45;;;23.80;99.90;;;;;;6777207;87;20188;-78
2021/06/07 13:53:43;;;;;;;8.68;6.35;;;23.30;99.90;;;;;;6775931;87;20670;-81
2021/06/07 14:03:44;;;;;;;11.75;7.57;;;23.00;99.90;;;;;;6773294;88;20220;-84
2021/06/07 14:13:44;;;;;;;11.02;7.85;;;22.60;99.90;;;;;;6780931;87;20192;-80
2021/06/07 14:34:04;;;;;;;14.30;9.38;;;22.60;99.90;;;;;;6781303;87;20214;-81
2021/06/07 14:44:05;;;;;;;10.77;8.13;;;22.80;99.90;;;;;;6781267;87;20248;-79
2021/06/07 14:54:05;;;;;;;11.73;8.73;;;23.50;99.90;;;;;;6767363;87;20181;-80
2021/06/07 15:04:06;;;;;;;12.55;8.48;;;23.90;99.90;;;;;;6767217;87;20195;-81
2021/06/07 15:14:07;;;;;;;11.93;8.43;;;24.20;99.90;;;;;;6768250;87;20225;-81
2021/06/07 15:24:08;;;;;;;14.55;8.38;;;24.70;99.90;;;;;;6765061;87;20326;-80
2021/06/07 15:34:09;;;;;;;11.85;8.32;;;24.80;99.90;;;;;;6771027;87;20304;-80
2021/06/07 15:44:10;;;;;;;11.63;8.65;;;24.50;99.90;;;;;;6759913;88;20199;-81
2021/06/07 15:54:11;;;;;;;12.93;10.05;;;24.30;99.90;;;;;;6746288;88;20184;-80
2021/06/07 16:04:12;;;;;;;15.30;10.50;;;24.10;99.90;;;;;;6770554;87;20692;-80
2021/06/07 16:14:12;;;;;;;13.93;10.95;;;25.10;99.90;;;;;;6764737;87;20179;-81
2021/06/07 16:24:13;;;;;;;17.55;11.38;;;24.90;99.90;;;;;;6765947;87;20180;-81
2021/06/07 16:34:13;;;;;;;16.00;10.50;;;24.40;99.90;;;;;;6776482;87;20239;-78
2021/06/07 16:44:14;;;;;;;14.13;9.35;;;23.40;99.90;;;;;;6766538;87;20244;-76
2021/06/07 16:54:14;;;;;;;10.38;8.40;;;23.50;99.90;;;;;;6751053;88;20203;-76
2021/06/07 17:04:15;;;;;;;9.90;7.17;;;23.30;99.90;;;;;;6752219;88;20208;-77
2021/06/07 17:14:29;;;;;;;9.25;6.90;;;23.10;99.90;;;;;;6756451;88;20616;-80
2021/06/07 17:24:32;;;;;;;8.57;6.43;;;22.70;99.90;;;;;;6770470;87;20313;-80
2021/06/07 17:34:32;;;;;;;9.68;7.00;;;22.50;99.90;;;;;;6794220;87;20226;-79
2021/06/07 17:44:33;;;;;;;9.83;6.40;;;22.20;99.90;;;;;;6781588;87;20303;-79
2021/06/07 17:54:35;;;;;;;8.80;6.70;;;21.90;99.90;;;;;;6761268;88;20530;-80
2021/06/07 18:04:35;;;;;;;7.30;6.37;;;21.80;99.90;;;;;;6755607;87;20200;-78
2021/06/07 18:14:36;;;;;;;7.90;6.30;;;21.60;99.90;;;;;;6759453;88;20205;-79
2021/06/07 18:24:37;;;;;;;7.57;6.20;;;21.70;99.90;;;;;;6759783;88;20220;-78
2021/06/07 18:34:37;;;;;;;9.75;7.05;;;21.40;99.90;;;;;;6758818;88;20217;-80
2021/06/07 18:44:38;;;;;;;15.80;6.93;;;21.30;99.90;;;;;;6761731;88;20278;-81
2021/06/07 19:04:42;;;;;;;9.05;5.87;;;20.90;99.90;;;;;;6777769;87;20903;-80
2021/06/07 19:14:43;;;;;;;7.95;5.50;;;20.70;99.90;;;;;;6773607;87;20192;-81
2021/06/07 19:24:44;;;;;;;8.38;6.03;;;20.50;99.90;;;;;;6775103;88;20183;-81
2021/06/07 19:34:48;;;;;;;11.32;6.45;;;20.30;99.90;;;;;;6775496;88;20296;-80
2021/06/07 19:44:49;;;;;;;8.57;6.53;;;20.20;99.90;;;;;;6753903;88;20239;-80
2021/06/07 19:54:55;;;;;;;7.80;6.40;;;20.10;99.90;;;;;;6757988;88;20208;-81
2021/06/07 20:04:55;;;;;;;9.30;6.10;;;20.00;99.90;;;;;;6756471;88;20188;-78
2021/06/07 20:14:56;;;;;;;9.15;6.25;;;19.80;99.90;;;;;;6749618;88;20814;-76
2021/06/07 20:24:57;;;;;;;9.18;6.82;;;19.80;99.90;;;;;;6753074;88;20209;-78
2021/06/07 20:34:57;;;;;;;9.30;6.75;;;19.70;99.90;;;;;;6762710;88;20286;-78
2021/06/07 20:44:59;;;;;;;7.72;6.37;;;19.50;99.90;;;;;;6776109;87;20234;-78
2021/06/07 20:55:00;;;;;;;7.85;6.78;;;19.50;99.90;;;;;;6767858;88;20196;-80
2021/06/07 21:05:00;;;;;;;10.23;6.93;;;19.30;99.90;;;;;;6741168;88;20229;-80
2021/06/07 21:15:01;;;;;;;8.55;7.25;;;19.20;99.90;;;;;;6733391;88;20340;-80
2021/06/07 21:25:04;;;;;;;9.85;6.87;;;19.00;99.90;;;;;;6732582;88;20940;-78
2021/06/07 21:35:05;;;;;;;10.20;7.25;;;19.00;99.90;;;;;;6735367;88;20618;-77
2021/06/07 21:45:07;;;;;;;10.05;7.65;;;18.80;99.90;;;;;;6735000;88;20244;-78
2021/06/07 21:55:08;;;;;;;10.05;7.15;;;18.70;99.90;;;;;;6734552;88;20197;-79
2021/06/07 22:05:10;;;;;;;10.45;7.85;;;18.60;99.90;;;;;;6732073;88;20608;-77
2021/06/07 22:15:11;;;;;;;13.27;9.00;;;18.60;99.90;;;;;;6737904;88;20624;-78
2021/06/07 22:25:11;;;;;;;11.27;9.25;;;18.60;99.90;;;;;;6737772;88;20252;-79
2021/06/07 22:35:13;;;;;;;11.25;9.15;;;18.40;99.90;;;;;;6738129;88;20196;-78
2021/06/07 22:45:13;;;;;;;12.23;9.45;;;18.40;99.90;;;;;;6757579;87;20194;-78
2021/06/07 22:55:14;;;;;;;11.93;9.38;;;18.50;99.90;;;;;;6759856;88;20180;-79
2021/06/07 23:05:15;;;;;;;12.27;9.05;;;18.20;99.90;;;;;;6757289;88;20217;-79
2021/06/07 23:15:16;;;;;;;12.85;9.38;;;17.90;99.90;;;;;;6758055;88;20195;-79
2021/06/07 23:25:17;;;;;;;12.05;9.68;;;17.80;99.90;;;;;;6734389;88;20217;-77
2021/06/07 23:35:18;;;;;;;14.63;10.10;;;17.80;99.90;;;;;;6735753;88;20354;-79
2021/06/07 23:45:18;;;;;;;12.40;10.40;;;17.70;99.90;;;;;;6736920;88;20386;-79
2021/06/07 23:55:20;;;;;;;14.35;11.00;;;17.70;99.90;;;;;;6736654;88;20176;-78
